createdAt,value
2022-09-30T00:00:48.657Z,1.65
2022-09-30T00:03:38.913Z,1.33
2022-09-30T00:06:28.382Z,2.55
2022-09-30T00:09:16.659Z,2.00
2022-09-30T00:12:04.837Z,1.65
2022-09-30T00:14:52.710Z,1.50
2022-09-30T00:17:40.465Z,1.52
2022-09-30T00:20:28.251Z,1.92
2022-09-30T00:23:16.285Z,3.90
2022-09-30T00:26:15.645Z,1.67
2022-09-30T00:29:04.705Z,2.45
2022-09-30T00:31:52.498Z,1.60
2022-09-30T00:34:40.257Z,1.40
2022-09-30T00:37:28.022Z,1.33
2022-09-30T00:40:15.831Z,1.80
2022-09-30T00:43:03.573Z,1.70
2022-09-30T00:45:57.635Z,2.03
2022-09-30T00:51:45.842Z,1.90
2022-09-30T00:54:34.638Z,1.35
2022-09-30T00:57:22.388Z,3.50
2022-09-30T01:00:10.455Z,1.50
2022-09-30T01:02:58.274Z,1.77
2022-09-30T01:05:46.086Z,1.55
2022-09-30T01:08:37.715Z,2.25
2022-09-30T01:11:27.752Z,2.25
2022-09-30T01:14:24.110Z,1.30
2022-09-30T01:17:22.982Z,2.10
2022-09-30T01:20:47.153Z,1.73
2022-09-30T01:23:49.795Z,1.90
2022-09-30T01:27:17.097Z,3.20
2022-09-30T01:30:15.319Z,2.00
2022-09-30T01:33:10.482Z,2.65
2022-09-30T01:36:32.507Z,2.45
2022-09-30T01:39:46.301Z,7.55
2022-09-30T01:42:54.920Z,2.03
2022-09-30T01:45:56.601Z,3.53
2022-09-30T01:48:56.211Z,2.17
2022-09-30T01:52:05.855Z,1.33
2022-09-30T01:55:08.487Z,1.27
2022-09-30T01:58:11.633Z,1.52
2022-09-30T02:01:03.516Z,1.88
2022-09-30T02:04:02.807Z,1.50
2022-09-30T02:06:57.025Z,2.40
2022-09-30T02:10:00.032Z,1.40
2022-09-30T02:12:56.097Z,1.65
2022-09-30T02:15:52.957Z,3.05
2022-09-30T02:18:52.116Z,1.67
2022-09-30T02:21:43.192Z,2.55
2022-09-30T02:24:37.075Z,2.53
2022-09-30T02:27:41.525Z,2.03
2022-09-30T02:30:30.035Z,1.15
2022-09-30T02:33:25.330Z,1.58
2022-09-30T02:37:02.029Z,1.30
2022-09-30T02:40:32.041Z,2.33
2022-09-30T02:43:21.410Z,3.05
2022-09-30T02:46:21.136Z,1.20
2022-09-30T02:49:22.942Z,3.42
2022-09-30T02:52:43.254Z,1.25
2022-09-30T02:55:56.412Z,3.55
2022-09-30T02:58:46.045Z,1.15
2022-09-30T03:01:33.852Z,1.30
2022-09-30T03:04:31.077Z,1.17
2022-09-30T03:07:19.046Z,2.13
2022-09-30T03:10:18.236Z,1.35
2022-09-30T03:13:23.841Z,2.03
2022-09-30T03:16:39.204Z,1.73
2022-09-30T03:19:57.227Z,1.42
2022-09-30T03:22:55.458Z,2.60
2022-09-30T03:26:29.808Z,1.33
2022-09-30T03:29:45.124Z,1.37
2022-09-30T03:32:57.834Z,1.92
2022-09-30T03:36:39.989Z,1.48
2022-09-30T03:39:37.356Z,1.08
2022-09-30T03:42:41.332Z,2.08
2022-09-30T03:45:46.561Z,1.33
2022-09-30T03:48:37.832Z,2.83
2022-09-30T03:51:25.893Z,2.05
2022-09-30T03:54:14.424Z,1.48
2022-09-30T03:57:05.081Z,18.50
2022-09-30T03:59:52.835Z,1.40
2022-09-30T04:02:40.717Z,1.88
2022-09-30T04:05:28.434Z,1.00
2022-09-30T04:08:16.915Z,1.15
2022-09-30T04:11:05.567Z,2.30
2022-09-30T04:13:53.296Z,1.50
2022-09-30T04:16:41.401Z,1.58
2022-09-30T04:19:29.275Z,1.20
2022-09-30T04:22:17.119Z,1.30
2022-09-30T04:25:05.469Z,1.15
2022-09-30T04:27:54.539Z,2.05
2022-09-30T04:30:42.250Z,1.95
2022-09-30T04:33:30.153Z,3.10
2022-09-30T04:36:18.329Z,1.73
2022-09-30T04:39:06.477Z,2.13
2022-09-30T04:41:54.216Z,3.80
2022-09-30T04:44:41.925Z,0.90
2022-09-30T04:47:30.109Z,1.50
2022-09-30T04:50:18.254Z,1.77
2022-09-30T04:53:06.454Z,1.20
2022-09-30T04:56:00.213Z,1.35
2022-09-30T04:58:47.990Z,1.77
2022-09-30T05:01:36.002Z,1.13
2022-09-30T05:04:23.721Z,1.38
2022-09-30T05:07:11.623Z,1.52
2022-09-30T05:09:59.531Z,2.30
2022-09-30T05:12:47.486Z,1.95
2022-09-30T05:15:35.634Z,0.90
2022-09-30T05:18:26.361Z,2.25
2022-09-30T05:21:18.240Z,8.18
2022-09-30T05:24:06.015Z,4.90
2022-09-30T05:26:53.839Z,16.52
2022-09-30T05:29:42.301Z,15.75
2022-09-30T05:32:31.636Z,16.33
2022-09-30T05:35:19.493Z,14.45
2022-09-30T05:38:09.114Z,19.42
2022-09-30T05:40:56.917Z,16.00
2022-09-30T05:43:45.358Z,17.40
2022-09-30T05:46:33.233Z,17.20
2022-09-30T05:49:22.123Z,11.18
2022-09-30T05:52:09.982Z,12.88
2022-09-30T05:55:01.000Z,9.23
2022-09-30T05:57:50.628Z,10.25
2022-09-30T06:00:42.561Z,10.57
2022-09-30T06:03:30.311Z,13.07
2022-09-30T06:06:19.633Z,11.25
2022-09-30T06:09:07.417Z,8.82
2022-09-30T06:11:58.058Z,8.30
2022-09-30T06:14:45.816Z,8.77
2022-09-30T06:17:34.505Z,8.88
2022-09-30T06:20:22.519Z,11.35
2022-09-30T06:23:10.310Z,9.70
2022-09-30T06:25:59.003Z,9.18
2022-09-30T06:28:46.762Z,6.85
2022-09-30T06:31:34.628Z,14.18
2022-09-30T06:34:22.469Z,9.05
2022-09-30T06:37:12.389Z,12.85
2022-09-30T06:40:00.204Z,9.32
2022-09-30T06:42:49.741Z,11.27
2022-09-30T06:45:38.280Z,12.13
2022-09-30T06:48:36.991Z,9.65
2022-09-30T06:51:26.307Z,9.25
2022-09-30T06:54:14.166Z,10.00
2022-09-30T06:57:02.121Z,12.68
2022-09-30T06:59:50.886Z,11.45
2022-09-30T07:02:39.929Z,14.93
2022-09-30T07:05:27.850Z,13.40
2022-09-30T07:08:15.754Z,8.35
2022-09-30T07:11:16.413Z,15.93
2022-09-30T07:14:05.914Z,10.57
2022-09-30T07:16:53.766Z,14.63
2022-09-30T07:19:41.598Z,10.50
2022-09-30T07:22:32.037Z,9.30
2022-09-30T07:25:19.897Z,8.55
2022-09-30T07:28:07.641Z,8.35
2022-09-30T07:31:13.468Z,13.57
2022-09-30T07:34:09.011Z,17.52
2022-09-30T07:36:56.785Z,14.73
2022-09-30T07:39:48.061Z,14.90
2022-09-30T07:42:44.919Z,9.10
2022-09-30T07:45:32.819Z,8.32
2022-09-30T07:48:58.896Z,7.00
2022-09-30T07:51:46.659Z,7.93
2022-09-30T07:54:38.827Z,5.78
2022-09-30T07:57:29.668Z,7.95
2022-09-30T08:00:41.173Z,8.57
2022-09-30T08:03:25.439Z,7.55
2022-09-30T08:06:19.535Z,9.05
2022-09-30T08:09:08.335Z,7.40
2022-09-30T08:11:56.227Z,11.38
2022-09-30T08:14:44.796Z,9.30
2022-09-30T08:17:32.536Z,12.02
2022-09-30T08:20:22.633Z,12.02
2022-09-30T08:23:10.592Z,11.77
2022-09-30T08:26:06.774Z,6.68
2022-09-30T08:28:54.966Z,18.30
2022-09-30T08:31:42.803Z,14.00
2022-09-30T08:34:33.854Z,11.85
2022-09-30T08:37:24.489Z,12.57
2022-09-30T08:40:32.620Z,10.73
2022-09-30T08:43:50.437Z,19.15
2022-09-30T08:46:45.228Z,12.75
2022-09-30T08:50:08.961Z,9.35
2022-09-30T08:53:11.028Z,24.65
2022-09-30T08:56:02.702Z,19.23
2022-09-30T08:58:56.968Z,11.55
2022-09-30T09:01:49.004Z,11.73
2022-09-30T09:04:36.893Z,10.65
2022-09-30T09:07:36.480Z,15.65
2022-09-30T09:10:43.205Z,17.85
2022-09-30T09:13:52.075Z,17.23
2022-09-30T09:17:00.221Z,18.52
2022-09-30T09:20:05.250Z,21.63
2022-09-30T09:22:52.945Z,15.38
2022-09-30T09:25:41.125Z,22.67
2022-09-30T09:28:46.469Z,17.00
2022-09-30T09:31:35.074Z,19.08
2022-09-30T09:34:26.669Z,23.40
2022-09-30T09:37:18.943Z,14.70
2022-09-30T09:40:32.425Z,15.77
2022-09-30T09:43:43.818Z,14.50
2022-09-30T09:46:48.270Z,19.17
2022-09-30T09:49:40.102Z,22.73
2022-09-30T09:52:57.768Z,18.17
2022-09-30T09:55:45.647Z,16.88
2022-09-30T09:58:34.638Z,13.15
2022-09-30T10:01:32.813Z,9.82
2022-09-30T10:04:27.223Z,12.55
2022-09-30T10:07:15.503Z,13.20
2022-09-30T10:10:23.099Z,12.80
2022-09-30T10:13:37.994Z,16.35
2022-09-30T10:16:36.999Z,12.23
2022-09-30T10:19:30.937Z,8.52
2022-09-30T10:25:14.180Z,23.40
2022-09-30T10:28:22.681Z,18.80
2022-09-30T10:31:36.101Z,11.85
2022-09-30T10:34:40.505Z,14.40
2022-09-30T10:37:28.274Z,12.18
2022-09-30T10:40:19.064Z,10.45
2022-09-30T10:43:37.565Z,13.40
2022-09-30T10:46:39.112Z,13.90
2022-09-30T10:50:00.012Z,11.70
2022-09-30T10:52:59.561Z,20.77
2022-09-30T10:55:47.313Z,16.02
2022-09-30T10:58:50.053Z,13.32
2022-09-30T11:01:46.786Z,20.52
2022-09-30T11:04:40.116Z,19.90
2022-09-30T11:07:44.645Z,14.30
2022-09-30T11:10:57.848Z,15.55
2022-09-30T11:14:11.131Z,14.57
2022-09-30T11:17:23.270Z,14.48
2022-09-30T11:20:25.454Z,17.90
2022-09-30T11:23:32.884Z,11.65
2022-09-30T11:26:42.313Z,14.48
2022-09-30T11:29:42.571Z,7.88
2022-09-30T11:33:01.023Z,13.80
2022-09-30T11:36:42.885Z,8.93
2022-09-30T11:39:59.076Z,10.73
2022-09-30T11:42:57.990Z,8.73
2022-09-30T11:46:36.545Z,11.73
2022-09-30T11:50:06.748Z,12.05
2022-09-30T11:53:16.542Z,11.57
2022-09-30T11:56:23.038Z,10.55
2022-09-30T11:59:27.006Z,7.78
2022-09-30T12:02:44.581Z,6.22
2022-09-30T12:05:43.824Z,9.95
2022-09-30T12:08:38.214Z,8.15
2022-09-30T12:11:49.776Z,10.48
2022-09-30T12:15:00.129Z,8.13
2022-09-30T12:17:54.880Z,12.38
2022-09-30T12:20:54.083Z,8.93
2022-09-30T12:23:51.215Z,9.73
2022-09-30T12:26:41.431Z,7.88
2022-09-30T12:29:56.225Z,6.53
2022-09-30T12:33:26.920Z,7.80
2022-09-30T12:36:40.581Z,6.40
2022-09-30T12:39:50.877Z,5.80
2022-09-30T12:43:07.017Z,7.00
2022-09-30T12:46:19.513Z,4.45
2022-09-30T12:49:15.676Z,8.88
2022-09-30T12:52:13.966Z,5.85
2022-09-30T12:55:09.955Z,9.65
2022-09-30T12:58:01.334Z,6.38
2022-09-30T13:01:15.653Z,5.88
2022-09-30T13:04:03.309Z,10.30
2022-09-30T13:06:50.939Z,11.52
2022-09-30T13:10:22.048Z,6.80
2022-09-30T13:13:35.091Z,9.82
2022-09-30T13:17:03.216Z,8.48
2022-09-30T13:19:53.177Z,5.43
2022-09-30T13:22:43.153Z,5.72
2022-09-30T13:25:54.396Z,7.75
2022-09-30T13:28:42.201Z,6.97
2022-09-30T13:31:49.854Z,7.03
2022-09-30T13:34:55.432Z,7.65
2022-09-30T13:37:43.151Z,10.55
2022-09-30T13:40:57.138Z,5.38
2022-09-30T13:43:50.902Z,6.50
2022-09-30T13:46:51.784Z,4.18
2022-09-30T13:49:58.015Z,4.75
2022-09-30T13:52:59.131Z,3.72
2022-09-30T13:55:50.896Z,8.20
2022-09-30T13:59:00.333Z,5.72
2022-09-30T14:02:29.446Z,11.48
2022-09-30T14:05:35.139Z,4.60
2022-09-30T14:08:41.047Z,4.25
